Time;durP1;ratioP1;P1;durP2;ratioP2;P2;SDS_P1;SDS_P2;PMS_P1;PMS_P2;Temp;Humidity;BMP_temperature;BMP_pressure;BME280_temperature;BME280_humidity;BME280_pressure;Samples;Min_cycle;Max_cycle;Signal;HPM_P1;HPM_P2
2024/01/10 00:01:18;;;;;;;;;;;;;;;16.76;60.44;102670.22;7391142;19;1680;-35
2024/01/10 00:03:47;;;;;;;;;;;;;;;16.74;60.90;102690.81;7391174;19;1329;-34
2024/01/10 00:06:15;;;;;;;;;;;;;;;17.01;59.94;102677.94;7390477;19;1498;-35
2024/01/10 00:08:46;;;;;;;;;;;;;;;17.37;59.07;102667.22;7390760;19;1787;-35
2024/01/10 00:11:15;;;;;;;;;;;;;;;17.45;58.37;102662.34;7389928;19;1502;-35
2024/01/10 00:13:43;;;;;;;;;;;;;;;17.29;58.87;102666.75;7391327;19;1371;-34
2024/01/10 00:16:14;;;;;;;;;;;;;;;17.02;59.81;102674.31;7389357;19;1888;-34
2024/01/10 00:18:42;;;;;;;;;;;;;;;16.85;60.16;102681.38;7389943;19;1422;-34
2024/01/10 00:21:11;;;;;;;;;;;;;;;16.69;60.60;102689.22;7388960;19;1482;-34
2024/01/10 00:23:39;;;;;;;;;;;;;;;16.69;60.80;102691.91;7390879;19;1503;-35
2024/01/10 00:26:10;;;;;;;;;;;;;;;17.13;59.69;102687.16;7389537;19;1593;-34
2024/01/10 00:28:38;;;;;;;;;;;;;;;17.44;58.74;102675.78;7389896;19;1407;-34
2024/01/10 00:31:07;;;;;;;;;;;;;;;17.58;58.20;102683.09;7390202;19;1755;-35
2024/01/10 00:33:35;;;;;;;;;;;;;;;17.66;57.72;102672.84;7389539;19;1591;-34
2024/01/10 00:36:03;;;;;;;;;;;;;;;17.61;57.75;102686.47;7387171;19;1848;-34
2024/01/10 00:38:32;;;;;;;;;;;;;;;17.25;58.91;102681.22;7389348;19;1528;-34
2024/01/10 00:41:00;;;;;;;;;;;;;;;16.97;59.81;102703.06;7391047;19;1623;-34
2024/01/10 00:43:31;;;;;;;;;;;;;;;16.91;60.07;102698.91;7391275;19;1292;-34
2024/01/10 00:46:00;;;;;;;;;;;;;;;16.81;60.24;102692.22;7389693;19;1920;-34
2024/01/10 00:48:28;;;;;;;;;;;;;;;17.14;59.09;102695.09;7389547;19;1226;-35
2024/01/10 00:50:56;;;;;;;;;;;;;;;17.46;58.42;102688.13;7390059;19;1616;-34
2024/01/10 00:53:25;;;;;;;;;;;;;;;17.26;58.69;102682.94;7374708;19;1426;-35
2024/01/10 00:55:53;;;;;;;;;;;;;;;17.01;59.44;102696.63;7387496;19;1876;-34
2024/01/10 00:58:21;;;;;;;;;;;;;;;16.84;59.91;102700.16;7389983;19;1347;-34
2024/01/10 01:00:52;;;;;;;;;;;;;;;16.69;60.33;102694.56;7388336;19;1624;-34
2024/01/10 01:03:20;;;;;;;;;;;;;;;16.61;60.63;102670.03;7388926;19;1552;-35
2024/01/10 01:05:49;;;;;;;;;;;;;;;17.06;59.52;102691.94;7389985;19;1597;-35
2024/01/10 01:08:17;;;;;;;;;;;;;;;17.35;58.70;102671.78;7389563;19;1596;-34
2024/01/10 01:10:45;;;;;;;;;;;;;;;17.41;58.17;102668.78;7390553;19;1117;-34
2024/01/10 01:13:14;;;;;;;;;;;;;;;17.15;58.78;102675.47;7389713;19;1185;-34
2024/01/10 01:15:42;;;;;;;;;;;;;;;16.91;59.51;102680.22;7394534;19;1855;-34
2024/01/10 01:21:09;;;;;;;;;;;;;;;16.56;60.51;102673.84;7365079;19;1825;-42
2024/01/10 01:23:37;;;;;;;;;;;;;;;16.80;59.68;102671.81;7393181;19;1737;-42
2024/01/10 01:26:06;;;;;;;;;;;;;;;17.19;58.75;102673.47;7396229;19;1834;-43
2024/01/10 01:28:34;;;;;;;;;;;;;;;17.47;58.15;102679.16;7395009;19;1224;-42
2024/01/10 01:31:03;;;;;;;;;;;;;;;17.30;58.44;102663.97;7395755;19;1534;-43
2024/01/10 01:33:31;;;;;;;;;;;;;;;16.97;59.22;102668.34;7394770;19;1578;-42
2024/01/10 01:36:00;;;;;;;;;;;;;;;16.79;59.67;102670.06;7391576;19;1845;-42
2024/01/10 01:38:31;;;;;;;;;;;;;;;16.65;60.00;102655.59;7396370;19;1392;-42
2024/01/10 01:40:59;;;;;;;;;;;;;;;16.60;60.41;102670.97;7394392;19;1949;-42
2024/01/10 01:43:28;;;;;;;;;;;;;;;16.95;59.26;102652.41;7395704;19;1686;-42
2024/01/10 01:45:57;;;;;;;;;;;;;;;17.27;58.53;102647.25;7395010;19;1422;-43
2024/01/10 01:48:26;;;;;;;;;;;;;;;17.39;58.02;102646.59;7394644;19;1603;-43
2024/01/10 01:50:56;;;;;;;;;;;;;;;17.18;58.47;102653.03;7393777;19;1550;-43
2024/01/10 01:53:24;;;;;;;;;;;;;;;16.92;59.12;102631.16;7392917;19;1498;-43
2024/01/10 01:55:55;;;;;;;;;;;;;;;16.69;59.74;102654.50;7382774;19;1835;-42
2024/01/10 01:58:25;;;;;;;;;;;;;;;16.60;60.29;102657.59;7395229;19;1363;-42
2024/01/10 02:00:54;;;;;;;;;;;;;;;16.60;60.27;102660.28;7394962;19;1422;-42
2024/01/10 02:03:23;;;;;;;;;;;;;;;17.02;59.09;102644.94;7391801;19;1547;-43
2024/01/10 02:05:52;;;;;;;;;;;;;;;17.35;58.33;102650.38;7394536;19;1533;-42
2024/01/10 02:08:20;;;;;;;;;;;;;;;17.28;58.19;102638.25;7395703;19;1261;-42
2024/01/10 02:10:48;;;;;;;;;;;;;;;17.02;58.77;102626.22;7392994;19;1398;-43
2024/01/10 02:13:20;;;;;;;;;;;;;;;16.80;59.31;102642.41;7394673;19;1838;-42
2024/01/10 02:15:49;;;;;;;;;;;;;;;16.64;60.03;102647.66;7392518;19;1885;-43
2024/01/10 02:18:17;;;;;;;;;;;;;;;16.53;60.41;102640.13;7393511;19;1585;-41
2024/01/10 02:20:46;;;;;;;;;;;;;;;16.82;59.71;102635.22;7393961;19;1538;-43
2024/01/10 02:23:14;;;;;;;;;;;;;;;17.17;58.90;102635.25;7393863;19;1752;-42
2024/01/10 02:25:45;;;;;;;;;;;;;;;17.37;58.14;102631.56;7390637;19;1748;-43
2024/01/10 02:28:14;;;;;;;;;;;;;;;17.16;58.50;102626.38;7393631;19;1489;-43
2024/01/10 02:30:42;;;;;;;;;;;;;;;16.84;59.48;102633.34;7391482;19;1782;-43
2024/01/10 02:33:10;;;;;;;;;;;;;;;16.72;60.02;102645.47;7392028;19;1489;-43
2024/01/10 02:35:39;;;;;;;;;;;;;;;16.52;60.30;102633.06;7393054;19;1847;-43
2024/01/10 02:38:07;;;;;;;;;;;;;;;16.63;60.14;102640.56;7392847;19;1162;-43
2024/01/10 02:40:35;;;;;;;;;;;;;;;17.03;59.25;102631.50;7395198;19;1403;-43
2024/01/10 02:43:07;;;;;;;;;;;;;;;17.36;58.22;102638.72;7393675;19;1921;-43
2024/01/10 02:45:36;;;;;;;;;;;;;;;17.31;58.13;102632.75;7393275;19;1855;-42
2024/01/10 02:48:04;;;;;;;;;;;;;;;16.98;58.75;102630.84;7393147;19;1815;-42
2024/01/10 02:50:33;;;;;;;;;;;;;;;16.73;59.58;102619.59;7392550;19;1835;-42
2024/01/10 02:53:01;;;;;;;;;;;;;;;16.58;60.02;102631.91;7393090;19;1858;-43
2024/01/10 02:55:29;;;;;;;;;;;;;;;16.55;60.18;102632.91;7375986;19;1844;-42
2024/01/10 02:57:58;;;;;;;;;;;;;;;16.95;59.24;102656.84;7392730;19;1530;-43
2024/01/10 03:00:28;;;;;;;;;;;;;;;17.31;58.46;102643.47;7391902;19;1525;-42
2024/01/10 03:02:57;;;;;;;;;;;;;;;17.52;57.94;102645.97;7391911;19;1585;-42
2024/01/10 03:05:25;;;;;;;;;;;;;;;17.60;57.22;102628.56;7392807;19;1474;-43
2024/01/10 03:07:53;;;;;;;;;;;;;;;17.57;57.18;102627.88;7391852;19;1567;-42
2024/01/10 03:10:22;;;;;;;;;;;;;;;17.52;57.22;102621.88;7391668;19;1470;-42
2024/01/10 03:12:50;;;;;;;;;;;;;;;17.48;57.22;102626.53;7391952;19;1843;-43
2024/01/10 03:15:19;;;;;;;;;;;;;;;17.42;57.25;102622.34;7392283;19;1840;-42
2024/01/10 03:17:49;;;;;;;;;;;;;;;17.46;57.24;102620.41;7393659;19;1487;-42
2024/01/10 03:20:18;;;;;;;;;;;;;;;17.43;57.36;102628.59;7391987;19;1117;-42
2024/01/10 03:22:46;;;;;;;;;;;;;;;17.41;57.40;102634.00;7392318;19;1463;-42
2024/01/10 03:25:15;;;;;;;;;;;;;;;17.42;57.51;102630.38;7390382;19;1595;-42
2024/01/10 03:27:43;;;;;;;;;;;;;;;17.40;57.16;102626.91;7391766;19;1474;-43
2024/01/10 03:30:12;;;;;;;;;;;;;;;17.42;57.37;102622.34;7392469;19;1712;-43
2024/01/10 03:32:40;;;;;;;;;;;;;;;17.52;57.12;102613.88;7392136;19;1448;-44
2024/01/10 03:35:12;;;;;;;;;;;;;;;17.50;57.04;102624.63;7392121;19;1891;-43
2024/01/10 03:37:40;;;;;;;;;;;;;;;17.48;57.05;102614.00;7392006;19;1399;-42
2024/01/10 03:40:09;;;;;;;;;;;;;;;17.47;57.08;102606.94;7392198;19;1956;-43
2024/01/10 03:42:37;;;;;;;;;;;;;;;17.44;57.00;102607.09;7390485;19;1824;-43
2024/01/10 03:45:06;;;;;;;;;;;;;;;17.44;57.24;102592.88;7390517;19;1470;-42
2024/01/10 03:47:34;;;;;;;;;;;;;;;17.41;57.12;102596.56;7391110;19;1451;-43
2024/01/10 03:50:02;;;;;;;;;;;;;;;17.47;56.92;102596.25;7389789;19;1992;-42
2024/01/10 03:52:33;;;;;;;;;;;;;;;17.52;56.84;102598.66;7389965;19;1835;-42
2024/01/10 03:55:02;;;;;;;;;;;;;;;17.53;56.72;102600.41;7374708;19;1847;-42
2024/01/10 03:57:31;;;;;;;;;;;;;;;17.50;56.81;102627.31;7392187;19;1332;-42
2024/01/10 03:59:59;;;;;;;;;;;;;;;17.52;56.76;102605.84;7390762;19;1546;-43
2024/01/10 04:02:27;;;;;;;;;;;;;;;17.65;56.54;102614.94;7390917;19;1574;-43
2024/01/10 04:04:56;;;;;;;;;;;;;;;17.93;56.10;102621.53;7390224;19;1412;-42
2024/01/10 04:07:24;;;;;;;;;;;;;;;18.02;55.70;102603.13;7391048;19;1470;-43
2024/01/10 04:09:55;;;;;;;;;;;;;;;18.01;55.72;102612.13;7390830;19;1569;-42
2024/01/10 04:12:23;;;;;;;;;;;;;;;17.96;56.38;102622.22;7389764;19;1723;-43
2024/01/10 04:14:52;;;;;;;;;;;;;;;17.92;56.33;102617.97;7391497;19;1476;-42
2024/01/10 04:17:20;;;;;;;;;;;;;;;17.90;56.31;102622.53;7389780;19;1865;-42
2024/01/10 04:19:48;;;;;;;;;;;;;;;17.85;56.41;102622.81;7389608;19;1471;-43
2024/01/10 04:22:16;;;;;;;;;;;;;;;17.85;56.11;102617.44;7389685;19;1535;-42
2024/01/10 04:24:45;;;;;;;;;;;;;;;17.84;56.34;102631.75;7391620;19;1858;-42
2024/01/10 04:27:16;;;;;;;;;;;;;;;18.00;56.07;102630.94;7388958;19;1395;-42
2024/01/10 04:29:44;;;;;;;;;;;;;;;18.09;55.79;102630.44;7390985;19;1554;-43
2024/01/10 04:32:13;;;;;;;;;;;;;;;18.13;55.70;102636.50;7391278;19;1374;-43
2024/01/10 04:34:41;;;;;;;;;;;;;;;18.15;55.94;102632.78;7390076;19;1838;-43
2024/01/10 04:37:09;;;;;;;;;;;;;;;18.24;55.60;102643.00;7388780;19;1929;-42
2024/01/10 04:39:38;;;;;;;;;;;;;;;18.24;55.39;102629.63;7389917;19;1804;-42
2024/01/10 04:42:07;;;;;;;;;;;;;;;18.21;55.48;102629.78;7390244;19;1482;-42
2024/01/10 04:44:38;;;;;;;;;;;;;;;18.20;55.48;102628.03;7389092;19;1819;-43
2024/01/10 04:47:07;;;;;;;;;;;;;;;18.21;55.55;102628.91;7389347;19;1577;-42
2024/01/10 04:49:35;;;;;;;;;;;;;;;18.04;55.86;102630.69;7394195;19;1213;-42
2024/01/10 04:52:04;;;;;;;;;;;;;;;17.60;56.88;102633.91;7396651;19;1269;-42
2024/01/10 04:54:32;;;;;;;;;;;;;;;17.25;58.14;102633.09;7381983;19;1814;-43
2024/01/10 04:57:00;;;;;;;;;;;;;;;17.16;58.04;102621.03;7395032;19;1905;-42
2024/01/10 04:59:29;;;;;;;;;;;;;;;17.65;57.25;102621.16;7396490;19;1524;-43
2024/01/10 05:02:00;;;;;;;;;;;;;;;18.08;56.14;102621.56;7395696;19;1404;-43
2024/01/10 05:04:28;;;;;;;;;;;;;;;18.31;55.39;102618.56;7390097;19;2061;-43
2024/01/10 05:06:56;;;;;;;;;;;;;;;18.42;55.37;102616.13;7392943;19;1500;-43
2024/01/10 05:09:25;;;;;;;;;;;;;;;18.23;55.39;102616.31;7396931;19;1420;-42
2024/01/10 05:11:54;;;;;;;;;;;;;;;17.70;56.41;102623.59;7397404;19;1661;-43
2024/01/10 05:14:23;;;;;;;;;;;;;;;17.28;57.37;102635.59;7397415;19;1235;-42
2024/01/10 05:16:53;;;;;;;;;;;;;;;17.55;56.95;102624.38;7395343;19;1836;-42
2024/01/10 05:19:24;;;;;;;;;;;;;;;17.97;55.92;102631.13;7395867;19;962;-42
2024/01/10 05:21:54;;;;;;;;;;;;;;;18.18;55.40;102629.06;7395814;19;1495;-42
2024/01/10 05:24:22;;;;;;;;;;;;;;;18.32;55.04;102633.66;7396210;19;1573;-42
2024/01/10 05:26:51;;;;;;;;;;;;;;;18.37;54.99;102645.00;7396081;19;1741;-42
2024/01/10 05:29:19;;;;;;;;;;;;;;;17.86;55.78;102613.81;7395474;19;1697;-42
2024/01/10 05:31:47;;;;;;;;;;;;;;;17.41;56.92;102628.66;7395166;19;1666;-42
2024/01/10 05:34:16;;;;;;;;;;;;;;;17.36;57.16;102630.69;7397460;19;1514;-42
2024/01/10 05:36:48;;;;;;;;;;;;;;;17.77;56.12;102626.81;7395711;19;1817;-43
2024/01/10 05:39:20;;;;;;;;;;;;;;;18.08;55.27;102620.69;7396140;19;1806;-43
2024/01/10 05:41:48;;;;;;;;;;;;;;;18.27;54.45;102624.06;7395363;19;1546;-42
2024/01/10 05:44:17;;;;;;;;;;;;;;;18.34;54.64;102646.00;7395095;19;1374;-43
2024/01/10 05:46:45;;;;;;;;;;;;;;;18.03;55.03;102630.78;7396798;19;1554;-43
2024/01/10 05:49:13;;;;;;;;;;;;;;;17.58;56.07;102646.50;7396598;19;1149;-43
2024/01/10 05:51:42;;;;;;;;;;;;;;;17.28;56.94;102638.25;7396085;19;1807;-42
2024/01/10 05:54:12;;;;;;;;;;;;;;;17.62;56.01;102620.44;7394829;19;1487;-43
2024/01/10 05:56:41;;;;;;;;;;;;;;;17.96;55.25;102618.69;7380230;19;1864;-43
2024/01/10 05:59:11;;;;;;;;;;;;;;;18.18;54.83;102643.31;7395125;19;1744;-42
2024/01/10 06:01:39;;;;;;;;;;;;;;;18.39;54.40;102621.66;7395824;19;1775;-43
2024/01/10 06:04:08;;;;;;;;;;;;;;;18.23;54.45;102630.53;7395912;19;1733;-43
2024/01/10 06:06:37;;;;;;;;;;;;;;;17.71;55.49;102636.03;7395155;19;1743;-43
2024/01/10 06:09:05;;;;;;;;;;;;;;;17.34;56.65;102629.91;7394011;19;1729;-42
2024/01/10 06:11:36;;;;;;;;;;;;;;;17.57;56.02;102633.22;7394287;19;1573;-43
2024/01/10 06:14:04;;;;;;;;;;;;;;;17.95;55.14;102644.59;7396218;19;1661;-43
2024/01/10 06:16:33;;;;;;;;;;;;;;;18.22;54.50;102646.69;7394975;19;1881;-42
2024/01/10 06:19:01;;;;;;;;;;;;;;;18.19;55.16;102653.09;7390952;19;1828;-43
2024/01/10 06:21:29;;;;;;;;;;;;;;;17.92;55.91;102650.09;7393565;19;1190;-43
2024/01/10 06:23:58;;;;;;;;;;;;;;;17.97;56.13;102653.41;7395025;19;1179;-43
2024/01/10 06:26:26;;;;;;;;;;;;;;;18.00;56.22;102652.34;7394502;19;1657;-43
2024/01/10 06:28:57;;;;;;;;;;;;;;;18.04;55.90;102659.28;7394212;19;1427;-43
2024/01/10 06:31:26;;;;;;;;;;;;;;;18.15;55.54;102653.34;7394739;19;1545;-42
2024/01/10 06:33:55;;;;;;;;;;;;;;;18.11;55.71;102665.19;7394618;19;1602;-43
2024/01/10 06:36:23;;;;;;;;;;;;;;;18.08;55.89;102667.06;7395615;19;1863;-42
2024/01/10 06:38:52;;;;;;;;;;;;;;;18.43;55.27;102664.25;7395785;19;1530;-43
2024/01/10 06:41:24;;;;;;;;;;;;;;;18.31;55.17;102661.41;7396327;19;1175;-42
2024/01/10 06:43:52;;;;;;;;;;;;;;;18.40;54.96;102658.19;7394326;19;1228;-43
2024/01/10 06:46:23;;;;;;;;;;;;;;;18.44;53.85;102678.50;7392027;19;1512;-43
2024/01/10 06:48:52;;;;;;;;;;;;;;;18.63;53.51;102668.50;7394094;19;1502;-42
2024/01/10 06:51:20;;;;;;;;;;;;;;;18.68;53.42;102661.06;7395457;19;1309;-43
2024/01/10 06:53:48;;;;;;;;;;;;;;;18.72;53.27;102661.78;7397251;19;1839;-43
2024/01/10 06:56:17;;;;;;;;;;;;;;;18.81;53.38;102671.13;7379148;19;1818;-43
2024/01/10 06:58:45;;;;;;;;;;;;;;;18.87;53.12;102660.03;7394542;19;1624;-42
2024/01/10 07:01:14;;;;;;;;;;;;;;;18.93;53.21;102659.69;7393242;19;1583;-43
2024/01/10 07:03:45;;;;;;;;;;;;;;;19.04;52.83;102646.53;7393584;19;1519;-42
2024/01/10 07:06:14;;;;;;;;;;;;;;;18.99;52.83;102667.38;7390289;19;1486;-46
2024/01/10 07:08:44;;;;;;;;;;;;;;;18.78;53.79;102660.53;7392575;19;1617;-45
2024/01/10 07:11:13;;;;;;;;;;;;;;;18.69;54.13;102654.75;7390652;19;1798;-45
2024/01/10 07:13:41;;;;;;;;;;;;;;;18.67;54.09;102659.31;7393991;19;1340;-46
2024/01/10 07:16:09;;;;;;;;;;;;;;;18.65;54.18;102660.38;7393581;19;1866;-46
2024/01/10 07:18:38;;;;;;;;;;;;;;;18.59;54.52;102658.91;7392505;19;1344;-45
2024/01/10 07:21:10;;;;;;;;;;;;;;;18.67;54.42;102674.56;7393662;19;1612;-46
2024/01/10 07:23:40;;;;;;;;;;;;;;;18.64;54.46;102685.44;7391674;19;2393;-45
2024/01/10 07:26:09;;;;;;;;;;;;;;;18.79;54.16;102684.59;7392822;19;1223;-45
2024/01/10 07:28:38;;;;;;;;;;;;;;;18.69;54.25;102667.28;7391594;19;1139;-45
2024/01/10 07:31:06;;;;;;;;;;;;;;;18.77;54.25;102696.34;7392437;19;1233;-45
2024/01/10 07:33:34;;;;;;;;;;;;;;;18.69;54.43;102678.88;7392196;19;1246;-45
2024/01/10 07:36:03;;;;;;;;;;;;;;;18.83;54.21;102686.16;7393045;19;1104;-45
2024/01/10 07:38:34;;;;;;;;;;;;;;;18.95;54.18;102689.09;7390224;19;1883;-45
2024/01/10 07:41:03;;;;;;;;;;;;;;;18.98;53.95;102668.34;7391419;19;1343;-45
2024/01/10 07:43:31;;;;;;;;;;;;;;;18.94;54.03;102676.63;7391376;19;1967;-45
2024/01/10 07:46:01;;;;;;;;;;;;;;;18.80;54.25;102686.34;7393767;19;1018;-45
2024/01/10 07:48:30;;;;;;;;;;;;;;;18.79;54.38;102678.34;7391326;19;1497;-45
2024/01/10 07:50:59;;;;;;;;;;;;;;;18.95;54.11;102673.88;7389214;19;1780;-43
2024/01/10 07:53:27;;;;;;;;;;;;;;;18.98;53.90;102684.44;7389456;19;1447;-43
2024/01/10 07:55:58;;;;;;;;;;;;;;;18.91;53.89;102687.53;7376491;19;1732;-43
2024/01/10 07:58:27;;;;;;;;;;;;;;;18.97;53.84;102690.72;7390066;19;1863;-43
2024/01/10 08:00:55;;;;;;;;;;;;;;;19.08;53.62;102690.13;7379101;19;1536;-41
2024/01/10 08:03:24;;;;;;;;;;;;;;;19.14;53.42;102689.75;7383816;19;1451;-42
2024/01/10 08:05:53;;;;;;;;;;;;;;;19.13;53.53;102703.25;7384939;19;1459;-42
2024/01/10 08:08:21;;;;;;;;;;;;;;;18.88;54.22;102693.97;7386377;19;1585;-41
2024/01/10 08:10:49;;;;;;;;;;;;;;;18.71;54.29;102684.16;7390602;19;1416;-42
2024/01/10 08:13:20;;;;;;;;;;;;;;;18.35;55.64;102695.97;7389618;19;1209;-42
2024/01/10 08:15:49;;;;;;;;;;;;;;;18.08;56.08;102709.03;7387625;19;1831;-42
2024/01/10 08:18:17;;;;;;;;;;;;;;;18.12;56.03;102705.22;7387094;19;1857;-40
2024/01/10 08:20:46;;;;;;;;;;;;;;;18.46;55.89;102690.00;7389447;19;1250;-42
2024/01/10 08:23:14;;;;;;;;;;;;;;;18.63;55.76;102691.75;7389564;19;1030;-42
2024/01/10 08:25:44;;;;;;;;;;;;;;;18.69;55.82;102699.44;7394590;19;1511;-41
2024/01/10 08:28:13;;;;;;;;;;;;;;;18.99;54.84;102690.66;7397957;19;1577;-41
2024/01/10 08:30:44;;;;;;;;;;;;;;;19.20;54.19;102694.75;7394699;19;1522;-41
2024/01/10 08:33:12;;;;;;;;;;;;;;;19.41;53.93;102681.88;7394801;19;1427;-41
2024/01/10 08:35:42;;;;;;;;;;;;;;;19.26;54.17;102688.19;7396704;19;1328;-44
2024/01/10 08:38:10;;;;;;;;;;;;;;;19.03;54.46;102682.31;7393792;19;1874;-42
2024/01/10 08:40:39;;;;;;;;;;;;;;;19.16;54.47;102690.53;7397211;19;1191;-42
2024/01/10 08:43:07;;;;;;;;;;;;;;;18.32;54.76;102598.84;7337876;19;1839;-36
2024/01/10 08:45:35;;;;;;;;;;;;;;;18.90;54.96;102709.94;7393049;19;1703;-34
2024/01/10 08:48:07;;;;;;;;;;;;;;;18.90;54.94;102694.72;7397318;19;1839;-34
2024/01/10 08:50:36;;;;;;;;;;;;;;;18.94;54.98;102698.97;7395323;19;1525;-34
2024/01/10 08:53:05;;;;;;;;;;;;;;;19.01;54.79;102691.41;7397581;19;1292;-34
2024/01/10 08:55:36;;;;;;;;;;;;;;;19.26;54.32;102693.53;7384144;19;1720;-34
2024/01/10 08:58:05;;;;;;;;;;;;;;;19.20;54.41;102688.50;7396148;19;2247;-34
2024/01/10 09:00:34;;;;;;;;;;;;;;;19.06;54.70;102700.06;7398841;19;1166;-34
2024/01/10 09:03:02;;;;;;;;;;;;;;;19.23;54.35;102682.97;7396387;19;1498;-40
2024/01/10 09:05:33;;;;;;;;;;;;;;;19.25;54.29;102681.06;7389851;19;1190;-41
2024/01/10 09:08:01;;;;;;;;;;;;;;;19.15;54.60;102695.97;7393448;19;1439;-40
2024/01/10 09:10:31;;;;;;;;;;;;;;;19.01;54.93;102689.59;7398987;19;1214;-41
2024/01/10 09:13:00;;;;;;;;;;;;;;;19.15;54.61;102682.56;7396050;19;1816;-40
2024/01/10 09:15:28;;;;;;;;;;;;;;;19.13;54.76;102677.28;7394195;19;1511;-40
2024/01/10 09:17:56;;;;;;;;;;;;;;;19.36;54.44;102678.63;7394489;19;1853;-40
2024/01/10 09:20:25;;;;;;;;;;;;;;;19.30;54.12;102678.09;7396188;19;1482;-41
2024/01/10 09:22:56;;;;;;;;;;;;;;;18.54;54.86;102612.75;7396160;19;1502;-40
2024/01/10 09:25:24;;;;;;;;;;;;;;;19.38;54.33;102663.31;7394148;19;1305;-41
2024/01/10 09:27:53;;;;;;;;;;;;;;;19.36;54.22;102659.84;7393291;19;1783;-40
2024/01/10 09:30:21;;;;;;;;;;;;;;;19.31;54.36;102653.03;7396044;19;1657;-41
2024/01/10 09:32:49;;;;;;;;;;;;;;;19.46;54.11;102658.34;7392970;19;1949;-40
2024/01/10 09:35:18;;;;;;;;;;;;;;;19.57;53.96;102652.31;7393145;19;1449;-40
2024/01/10 09:37:47;;;;;;;;;;;;;;;19.64;53.89;102655.50;7391936;19;1851;-40
2024/01/10 09:40:20;;;;;;;;;;;;;;;19.75;53.79;102649.50;7393249;19;1395;-41
2024/01/10 09:42:51;;;;;;;;;;;;;;;19.74;53.62;102639.72;7390727;19;1301;-41
2024/01/10 09:45:22;;;;;;;;;;;;;;;19.62;54.20;102641.31;7393734;19;1567;-41
2024/01/10 09:47:51;;;;;;;;;;;;;;;19.44;54.63;102648.66;7395801;19;1402;-41
2024/01/10 09:50:19;;;;;;;;;;;;;;;19.35;54.89;102647.38;7393793;19;1605;-41
2024/01/10 09:52:52;;;;;;;;;;;;;;;19.39;54.72;102645.38;7379144;19;1522;-41
2024/01/10 09:55:23;;;;;;;;;;;;;;;19.36;54.81;102641.06;7391405;19;995;-41
2024/01/10 09:57:52;;;;;;;;;;;;;;;19.39;54.70;102640.88;7375634;19;1939;-40
2024/01/10 10:00:21;;;;;;;;;;;;;;;19.46;54.63;102642.22;7392124;19;1514;-41
2024/01/10 10:02:50;;;;;;;;;;;;;;;19.41;54.99;102622.00;7391083;19;1321;-41
2024/01/10 10:05:19;;;;;;;;;;;;;;;19.53;54.41;102625.75;7387195;19;1209;-40
2024/01/10 10:07:48;;;;;;;;;;;;;;;19.55;54.29;102622.03;7390205;19;1213;-39
2024/01/10 10:10:17;;;;;;;;;;;;;;;19.26;55.02;102623.81;7390015;19;1254;-40
2024/01/10 10:12:49;;;;;;;;;;;;;;;19.27;55.08;102609.41;7389286;19;1628;-40
2024/01/10 10:15:18;;;;;;;;;;;;;;;19.30;55.27;102625.34;7389724;19;1545;-40
2024/01/10 10:17:50;;;;;;;;;;;;;;;19.47;54.56;102619.78;7367789;19;1963;-41
2024/01/10 10:20:23;;;;;;;;;;;;;;;19.45;54.73;102613.66;7388577;19;1468;-41
2024/01/10 10:23:03;;;;;;;;;;;;;;;19.39;54.72;102619.41;7387325;19;1340;-40
2024/01/10 10:25:33;;;;;;;;;;;;;;;19.34;55.04;102639.41;7388683;19;1585;-40
2024/01/10 10:28:06;;;;;;;;;;;;;;;19.43;54.90;102599.47;7378291;19;1493;-41
2024/01/10 10:30:34;;;;;;;;;;;;;;;19.60;54.25;102592.25;7387397;19;1684;-39
2024/01/10 10:33:04;;;;;;;;;;;;;;;19.35;55.14;102601.78;7387728;19;1451;-41
2024/01/10 10:35:32;;;;;;;;;;;;;;;19.25;55.55;102592.56;7387220;19;1545;-40
2024/01/10 10:38:01;;;;;;;;;;;;;;;19.39;55.08;102602.44;7388899;19;1865;-41
2024/01/10 10:40:29;;;;;;;;;;;;;;;19.57;54.60;102595.09;7390654;19;1201;-41
2024/01/10 10:42:59;;;;;;;;;;;;;;;19.43;54.75;102577.16;7391170;19;1319;-40
2024/01/10 10:45:30;;;;;;;;;;;;;;;19.43;54.82;102567.28;7389208;19;1380;-40
2024/01/10 10:47:59;;;;;;;;;;;;;;;19.39;54.31;102579.16;7388995;19;1521;-40
2024/01/10 10:50:30;;;;;;;;;;;;;;;19.45;55.07;102559.16;7392028;19;1629;-40
2024/01/10 10:53:00;;;;;;;;;;;;;;;19.37;55.44;102573.03;7392301;19;1670;-40
2024/01/10 10:55:29;;;;;;;;;;;;;;;19.36;55.66;102565.97;7390461;19;1438;-39
2024/01/10 10:57:58;;;;;;;;;;;;;;;19.38;55.82;102563.19;7373462;19;2354;-40
2024/01/10 11:00:27;;;;;;;;;;;;;;;19.36;55.64;102562.38;7391464;19;1254;-40
2024/01/10 11:02:58;;;;;;;;;;;;;;;19.36;56.11;102560.59;7391538;19;1302;-40
2024/01/10 11:05:27;;;;;;;;;;;;;;;19.38;56.22;102553.31;7391748;19;1150;-40
2024/01/10 11:07:56;;;;;;;;;;;;;;;19.23;56.46;102555.09;7389556;19;1407;-41
2024/01/10 11:10:27;;;;;;;;;;;;;;;19.24;56.76;102553.31;7393243;19;1018;-41
2024/01/10 11:13:14;;;;;;;;;;;;;;;19.33;55.95;102554.53;7390761;19;1444;-40
2024/01/10 11:16:03;;;;;;;;;;;;;;;19.23;55.94;102548.88;7390349;19;1454;-40
2024/01/10 11:18:44;;;;;;;;;;;;;;;19.35;54.81;102539.22;7388335;19;1851;-40
2024/01/10 11:21:24;;;;;;;;;;;;;;;19.17;54.70;102533.16;7390107;19;1491;-40
2024/01/10 11:23:54;;;;;;;;;;;;;;;19.11;53.43;102539.75;7387612;19;1645;-40
2024/01/10 11:26:22;;;;;;;;;;;;;;;19.09;53.95;102530.94;7385480;19;1288;-40
2024/01/10 11:28:51;;;;;;;;;;;;;;;19.03;54.41;102524.13;7385062;19;1681;-40
2024/01/10 11:31:29;;;;;;;;;;;;;;;19.18;54.35;102526.81;7385942;19;1766;-41
2024/01/10 11:34:01;;;;;;;;;;;;;;;19.14;54.40;102520.81;7385132;19;1760;-40
2024/01/10 11:36:29;;;;;;;;;;;;;;;19.05;54.36;102511.50;7385716;19;1625;-41
2024/01/10 11:39:02;;;;;;;;;;;;;;;19.13;54.24;102520.91;7389377;19;1853;-40
2024/01/10 11:41:31;;;;;;;;;;;;;;;19.27;54.10;102519.06;7389714;19;1671;-41
2024/01/10 11:44:22;;;;;;;;;;;;;;;19.38;53.78;102520.25;7390574;19;1623;-40
2024/01/10 11:46:51;;;;;;;;;;;;;;;19.30;54.08;102507.31;7390463;19;2095;-40
2024/01/10 11:49:24;;;;;;;;;;;;;;;19.35;54.03;102504.34;7391916;19;1657;-40
2024/01/10 11:51:53;;;;;;;;;;;;;;;19.31;53.83;102502.81;7391550;19;1720;-40
2024/01/10 11:54:36;;;;;;;;;;;;;;;19.19;54.31;102526.75;7391201;19;1216;-40
2024/01/10 11:57:04;;;;;;;;;;;;;;;19.15;54.54;102493.03;7376851;19;1376;-40
2024/01/10 11:59:30;;;;;;;;;;;;;;;19.15;54.40;102497.53;7390173;19;1852;-40
2024/01/10 12:01:58;;;;;;;;;;;;;;;19.24;54.09;102497.81;7393111;19;946;-40
2024/01/10 12:04:30;;;;;;;;;;;;;;;19.42;53.65;102498.50;7392347;19;1893;-40
2024/01/10 12:06:59;;;;;;;;;;;;;;;19.43;53.60;102500.22;7391860;19;1828;-41
2024/01/10 12:09:27;;;;;;;;;;;;;;;19.37;53.94;102503.28;7391464;19;1777;-40
2024/01/10 12:11:55;;;;;;;;;;;;;;;19.43;53.67;102496.66;7391838;19;1735;-40
2024/01/10 12:14:24;;;;;;;;;;;;;;;19.31;54.02;102489.41;7392367;19;1027;-40
2024/01/10 12:16:53;;;;;;;;;;;;;;;19.30;54.17;102484.97;7390968;19;1847;-40
2024/01/10 12:19:22;;;;;;;;;;;;;;;19.24;54.19;102483.56;7390346;19;1855;-40
2024/01/10 12:21:53;;;;;;;;;;;;;;;19.13;54.58;102499.44;7390590;19;1403;-40
2024/01/10 12:24:22;;;;;;;;;;;;;;;18.44;54.23;102362.41;7391212;19;1018;-40
2024/01/10 12:26:52;;;;;;;;;;;;;;;19.27;54.29;102488.72;7391470;19;1031;-41
2024/01/10 12:29:21;;;;;;;;;;;;;;;19.17;53.96;102485.75;7391217;19;1570;-40
2024/01/10 12:31:49;;;;;;;;;;;;;;;19.05;52.18;102489.19;7390348;19;1550;-40
2024/01/10 12:34:18;;;;;;;;;;;;;;;19.05;52.74;102487.34;7390569;19;1562;-41
2024/01/10 12:36:47;;;;;;;;;;;;;;;19.28;52.67;102485.94;7387511;19;1757;-41
2024/01/10 12:39:18;;;;;;;;;;;;;;;19.26;52.85;102473.59;7389951;19;1851;-40
2024/01/10 12:41:46;;;;;;;;;;;;;;;19.04;53.53;102474.06;7390715;19;1740;-41
2024/01/10 12:44:14;;;;;;;;;;;;;;;19.06;53.66;102473.00;7389069;19;1586;-41
2024/01/10 12:46:53;;;;;;;;;;;;;;;19.14;53.44;102474.34;7391045;19;1748;-40
2024/01/10 12:49:22;;;;;;;;;;;;;;;19.14;53.54;102477.03;7391032;19;1092;-40
2024/01/10 12:51:50;;;;;;;;;;;;;;;19.23;53.28;102471.94;7389550;19;1922;-41
2024/01/10 12:54:21;;;;;;;;;;;;;;;19.30;52.80;102468.88;7391044;19;1248;-40
2024/01/10 12:56:50;;;;;;;;;;;;;;;19.10;53.74;102478.16;7364394;19;1386;-40
2024/01/10 12:59:18;;;;;;;;;;;;;;;19.10;54.02;102464.75;7387448;19;1862;-40
2024/01/10 13:01:47;;;;;;;;;;;;;;;19.33;53.60;102466.03;7389387;19;1540;-41